createdAt,value
2023-04-03T16:02:10.893Z,7.20
2023-04-03T16:03:46.353Z,15.60
2023-04-03T16:05:18.617Z,8.80
2023-04-03T16:06:50.661Z,18.60
2023-04-03T16:08:22.556Z,12.60
2023-04-03T16:09:54.504Z,10.80
2023-04-03T16:11:27.177Z,9.00
2023-04-03T16:12:59.115Z,8.60
2023-04-03T16:14:31.642Z,10.40
2023-04-03T16:16:03.718Z,7.00
2023-04-03T16:17:36.360Z,7.20
2023-04-03T16:19:08.489Z,9.00
2023-04-03T16:20:40.786Z,10.80
2023-04-03T16:22:12.969Z,5.40
2023-04-03T16:23:45.499Z,9.00
2023-04-03T16:25:17.480Z,9.80
2023-04-03T16:26:49.334Z,6.00
2023-04-03T16:28:21.390Z,7.60
2023-04-03T16:29:53.309Z,4.60
2023-04-03T16:31:25.448Z,10.60
2023-04-03T16:32:57.677Z,6.80
2023-04-03T16:34:31.937Z,5.60
2023-04-03T16:36:07.003Z,5.60
2023-04-03T16:37:39.932Z,9.80
2023-04-03T16:39:11.837Z,5.00
2023-04-03T16:40:44.420Z,5.40
2023-04-03T16:42:16.818Z,6.60
2023-04-03T16:43:48.967Z,6.00
2023-04-03T16:45:20.928Z,5.20
2023-04-03T16:46:52.953Z,8.40
2023-04-03T16:48:24.892Z,8.40
2023-04-03T16:49:56.947Z,5.60
2023-04-03T16:51:28.954Z,7.80
2023-04-03T16:53:00.981Z,3.60
2023-04-03T16:54:32.858Z,4.80
2023-04-03T16:56:04.837Z,4.40
2023-04-03T16:57:36.765Z,5.40
2023-04-03T16:59:08.953Z,2.60
2023-04-03T17:00:40.918Z,6.60
2023-04-03T17:02:12.865Z,10.40
2023-04-03T17:03:44.832Z,6.00
2023-04-03T17:05:16.809Z,5.00
2023-04-03T17:06:48.847Z,8.80
2023-04-03T17:08:20.717Z,4.40
2023-04-03T17:09:54.485Z,4.60
2023-04-03T17:11:26.893Z,4.40
2023-04-03T17:12:58.830Z,6.40
2023-04-03T17:14:30.810Z,6.40
2023-04-03T17:16:04.121Z,0.80
2023-04-03T17:17:36.349Z,5.60
2023-04-03T17:19:08.250Z,3.80
2023-04-03T17:20:40.186Z,4.20
2023-04-03T17:22:12.319Z,24.60
2023-04-03T17:23:45.848Z,53.20
2023-04-03T17:25:18.069Z,65.50
2023-04-03T17:26:50.003Z,71.00
2023-04-03T17:28:25.774Z,75.75
2023-04-03T17:29:58.064Z,84.00
2023-04-03T17:31:29.989Z,80.75
2023-04-03T17:33:01.858Z,95.60
2023-04-03T17:34:33.944Z,96.40
2023-04-03T17:36:06.229Z,90.25
2023-04-03T17:37:38.092Z,92.50
2023-04-03T17:39:10.041Z,111.60
2023-04-03T17:40:43.560Z,115.25
2023-04-03T17:42:16.329Z,94.00
2023-04-03T17:43:48.313Z,96.00
2023-04-03T17:45:20.550Z,107.40
2023-04-03T17:46:52.493Z,107.40
2023-04-03T17:48:26.247Z,107.40
2023-04-03T17:49:58.271Z,117.80
2023-04-03T17:51:30.396Z,115.75
2023-04-03T17:53:02.404Z,101.50
2023-04-03T17:54:34.486Z,115.50
2023-04-03T17:56:10.750Z,108.80
2023-04-03T17:57:42.693Z,115.80
2023-04-03T17:59:16.509Z,110.00
2023-04-03T18:00:48.662Z,103.00
2023-04-03T18:02:20.749Z,107.00
2023-04-03T18:03:54.069Z,110.60
2023-04-03T18:05:29.500Z,114.00
2023-04-03T18:07:01.468Z,126.50
2023-04-03T18:08:35.842Z,129.25
2023-04-03T18:10:09.250Z,123.50
2023-04-03T18:11:41.487Z,144.25
2023-04-03T18:13:14.801Z,149.25
2023-04-03T18:14:47.348Z,149.00
2023-04-03T18:16:19.318Z,143.75
2023-04-03T18:17:56.725Z,137.50
2023-04-03T18:19:30.025Z,153.50
2023-04-03T18:21:02.408Z,136.50
2023-04-03T18:22:34.253Z,143.75
2023-04-03T18:24:07.996Z,153.25
2023-04-03T18:25:39.891Z,143.50
2023-04-03T18:27:15.916Z,141.75
2023-04-03T18:28:51.454Z,140.75
2023-04-03T18:33:27.031Z,138.50
2023-04-03T18:35:00.007Z,132.25
2023-04-03T18:36:32.013Z,132.50
2023-04-03T18:38:04.819Z,127.25
2023-04-03T18:39:36.963Z,121.00
2023-04-03T18:41:09.472Z,120.00
2023-04-03T18:42:41.490Z,124.25
2023-04-03T18:44:14.714Z,122.20
2023-04-03T18:45:46.908Z,113.20
2023-04-03T18:47:19.211Z,119.60
2023-04-03T18:48:51.368Z,126.00
2023-04-03T18:50:23.378Z,131.25
2023-04-03T18:51:55.510Z,114.60
2023-04-03T18:53:27.473Z,121.80
2023-04-03T18:54:59.373Z,101.80
2023-04-03T18:56:31.435Z,96.50
2023-04-03T18:58:03.297Z,88.25
2023-04-03T18:59:35.222Z,82.50
2023-04-03T19:01:07.121Z,81.25
2023-04-03T19:02:39.443Z,71.75
2023-04-03T19:04:11.758Z,73.00
2023-04-03T19:05:43.895Z,71.25
2023-04-03T19:07:16.068Z,68.75
2023-04-03T19:08:49.526Z,66.67
2023-04-03T19:10:21.522Z,66.75
2023-04-03T19:11:53.634Z,60.00
2023-04-03T19:13:26.964Z,61.40
2023-04-03T19:14:58.897Z,58.20
2023-04-03T19:16:30.901Z,55.60
2023-04-03T19:18:02.878Z,57.80
2023-04-03T19:19:34.984Z,46.80
2023-04-03T19:21:07.100Z,46.00
2023-04-03T19:22:39.206Z,44.20
2023-04-03T19:24:11.772Z,40.80
2023-04-03T19:25:44.064Z,29.80
2023-04-03T19:27:16.168Z,28.60
2023-04-03T19:28:50.806Z,31.40
2023-04-03T19:30:23.859Z,30.20
2023-04-03T19:31:55.957Z,34.80
2023-04-03T19:33:28.088Z,29.00
2023-04-03T19:35:00.193Z,26.80
2023-04-03T19:36:34.228Z,31.40
2023-04-03T19:38:06.158Z,25.20
2023-04-03T19:39:38.645Z,25.60
2023-04-03T19:41:15.402Z,29.00
2023-04-03T19:42:47.374Z,61.20
2023-04-03T19:44:19.241Z,83.00
2023-04-03T19:45:51.293Z,84.75
2023-04-03T19:47:23.645Z,87.00
2023-04-03T19:48:55.760Z,92.00
2023-04-03T19:50:27.838Z,93.25
2023-04-03T19:51:59.908Z,99.00
2023-04-03T19:53:32.504Z,85.00
2023-04-03T19:55:04.673Z,98.80
2023-04-03T19:56:36.654Z,111.20
2023-04-03T19:58:08.556Z,112.00
2023-04-03T19:59:40.606Z,98.60
2023-04-03T20:01:12.569Z,102.60
2023-04-03T20:02:44.635Z,104.40
2023-04-03T20:04:16.705Z,112.60
2023-04-03T20:05:48.700Z,103.40
2023-04-03T20:07:20.676Z,112.80
2023-04-03T20:08:53.779Z,103.60
2023-04-03T20:10:26.044Z,98.00
2023-04-03T20:12:00.226Z,104.40
2023-04-03T20:13:33.289Z,96.00
2023-04-03T20:15:07.843Z,99.50
2023-04-03T20:16:40.325Z,92.25
2023-04-03T20:18:19.556Z,98.00
2023-04-03T20:19:51.446Z,91.75
2023-04-03T20:21:30.530Z,108.00
2023-04-03T20:23:02.471Z,111.20
2023-04-03T20:24:34.739Z,110.40
2023-04-03T20:26:13.654Z,114.75
2023-04-03T20:27:47.726Z,102.50
2023-04-03T20:29:19.779Z,111.00
2023-04-03T20:30:52.499Z,111.50
2023-04-03T20:32:24.442Z,115.80
2023-04-03T20:33:57.052Z,116.25
2023-04-03T20:35:28.961Z,112.75
2023-04-03T20:37:00.913Z,110.20
2023-04-03T20:38:32.919Z,114.80
2023-04-03T20:40:05.361Z,109.80
2023-04-03T20:41:38.742Z,106.00
2023-04-03T20:43:10.710Z,99.20
2023-04-03T20:44:46.113Z,103.00
2023-04-03T20:46:20.263Z,89.80
2023-04-03T20:47:54.210Z,99.75
2023-04-03T20:49:26.318Z,99.80
2023-04-03T20:50:58.936Z,114.00
2023-04-03T20:52:30.978Z,129.75
2023-04-03T20:54:03.283Z,121.75
2023-04-03T20:55:35.370Z,122.75
2023-04-03T20:57:07.390Z,121.50
2023-04-03T20:58:39.711Z,116.50
2023-04-03T21:00:13.933Z,122.25
2023-04-03T21:01:47.049Z,117.50
2023-04-03T21:03:19.412Z,126.50
2023-04-03T21:04:54.026Z,120.75
2023-04-03T21:07:03.742Z,125.00
2023-04-03T21:09:13.054Z,119.50
2023-04-03T21:11:23.854Z,190.00
2023-04-03T21:13:32.993Z,132.50
2023-04-03T21:15:45.367Z,122.50
2023-04-03T21:17:54.495Z,107.75
2023-04-03T21:19:26.478Z,105.25
2023-04-03T21:20:58.398Z,109.20
2023-04-03T21:22:30.460Z,109.40
2023-04-03T21:24:02.647Z,102.60
2023-04-03T21:25:34.572Z,95.50
2023-04-03T21:27:06.635Z,92.25
2023-04-03T21:28:38.677Z,92.75
2023-04-03T21:30:11.435Z,88.50
2023-04-03T21:31:54.723Z,81.25
2023-04-03T21:33:27.484Z,80.25
2023-04-03T21:34:59.596Z,85.25
2023-04-03T21:36:40.379Z,73.75
2023-04-03T21:38:12.323Z,77.25
2023-04-03T21:39:45.308Z,77.50
2023-04-03T21:41:17.262Z,75.25
2023-04-03T21:42:56.500Z,69.50
2023-04-03T21:44:28.800Z,66.75
2023-04-03T21:46:00.839Z,69.50
2023-04-03T21:47:32.892Z,70.25
2023-04-03T21:49:04.834Z,72.00
2023-04-03T21:50:37.309Z,67.00
2023-04-03T21:52:09.374Z,62.00
2023-04-03T21:53:42.110Z,61.50
2023-04-03T21:55:15.579Z,62.50
2023-04-03T21:56:51.830Z,60.50
2023-04-03T21:58:33.041Z,60.00
2023-04-03T22:00:07.782Z,54.25
2023-04-03T22:01:42.858Z,59.75
2023-04-03T22:03:24.175Z,58.00
2023-04-03T22:04:56.695Z,57.00
2023-04-03T22:06:28.725Z,60.20
2023-04-03T22:08:00.950Z,51.60
2023-04-03T22:09:32.948Z,54.00
2023-04-03T22:11:07.787Z,54.00
2023-04-03T22:12:39.658Z,53.60
2023-04-03T22:14:12.396Z,52.20
2023-04-03T22:15:47.537Z,55.60
2023-04-03T22:17:19.420Z,49.20
2023-04-03T22:18:52.963Z,48.60
2023-04-03T22:20:24.983Z,48.40
2023-04-03T22:21:57.387Z,46.40
2023-04-03T22:23:29.362Z,40.60
2023-04-03T22:25:02.231Z,43.20
2023-04-03T22:26:35.164Z,35.40
2023-04-03T22:28:07.086Z,35.40
2023-04-03T22:29:39.117Z,43.80
2023-04-03T22:31:13.640Z,54.80
2023-04-03T22:32:46.267Z,63.25
2023-04-03T22:34:18.267Z,71.00
